Mitchell, Indiana
Current Conditions -  °F | °C
As of 4:53 AM on Monday 20 Oct 2014 (Local Time) from KBMG Reporting Station
Broken Clouds Broken Clouds  
Wind Chill: 47°   Ceiling: 10000
Heat Index: 49°   Visibility: 10mi
Dew Point: 44°   Wind: 5mph
Humidity: 83%   Direction: 190°S
Pressure: 30"   Gusts: NA
Location:  38.73°N, 86.47°W
Report Text: KBMG 200853Z AUTO 19004KT 10SM BKN100 09/07 A3000 RMK AO2 SLP157 T00940067 58012
Loading
Personal Weather Stations






























Interactive Weather Map
Tropical Storm Tracking
New forecast layout! Learn more

10-Day Weather Forecast

Advertisements
Track Severe Weather on mobile